Time;durP1;ratioP1;P1;durP2;ratioP2;P2;SDS_P1;SDS_P2;PMS_P1;PMS_P2;Temp;Humidity;BMP_temperature;BMP_pressure;BME280_temperature;BME280_humidity;BME280_pressure;Samples;Min_cycle;Max_cycle;Signal;HPM_P1;HPM_P2
2021/01/19 00:01:35;;;;;;;0.10;0.00;;;;;;;6.48;100.00;98846.44;5009578;28;20053;-79
2021/01/19 00:04:39;;;;;;;0.10;0.10;;;;;;;6.48;100.00;98835.38;5007093;28;20060;-78
2021/01/19 00:07:43;;;;;;;0.08;0.08;;;;;;;6.47;100.00;98829.09;4993113;28;20101;-79
2021/01/19 00:10:46;;;;;;;0.00;0.00;;;;;;;6.49;100.00;98825.84;4968402;28;20447;-79
2021/01/19 00:13:50;;;;;;;0.10;0.10;;;;;;;6.52;100.00;98813.88;4979350;28;20135;-79
2021/01/19 00:16:53;;;;;;;0.00;0.00;;;;;;;6.51;100.00;98806.78;4968256;28;20058;-79
2021/01/19 00:19:57;;;;;;;0.10;0.00;;;;;;;6.55;100.00;98799.06;4969511;28;20066;-79
2021/01/19 00:23:00;;;;;;;0.10;0.00;;;;;;;6.55;100.00;98790.78;4983599;28;20057;-78
2021/01/19 00:26:03;;;;;;;0.10;0.00;;;;;;;6.56;100.00;98775.72;4987708;28;20061;-78
2021/01/19 00:29:07;;;;;;;0.00;0.00;;;;;;;6.56;100.00;98767.41;4986894;28;20065;-78
2021/01/19 00:32:11;;;;;;;0.10;0.00;;;;;;;6.61;100.00;98761.97;4988076;28;20077;-79
2021/01/19 00:35:14;;;;;;;0.00;0.00;;;;;;;6.66;100.00;98752.25;4996832;28;20058;-79
2021/01/19 00:38:17;;;;;;;0.10;0.00;;;;;;;6.68;100.00;98738.72;4998185;28;20073;-79
2021/01/19 00:41:21;;;;;;;0.00;0.00;;;;;;;6.68;100.00;98733.19;4988185;28;20403;-79
2021/01/19 00:44:25;;;;;;;0.10;0.00;;;;;;;6.70;100.00;98719.63;4988563;28;20053;-81
2021/01/19 00:47:28;;;;;;;0.00;0.00;;;;;;;6.74;100.00;98722.97;4988483;28;20061;-79
2021/01/19 00:50:31;;;;;;;0.10;0.00;;;;;;;6.74;100.00;98703.59;4987370;28;20066;-78
2021/01/19 00:53:35;;;;;;;0.00;0.00;;;;;;;6.77;100.00;98702.66;4989341;28;20530;-80
2021/01/19 00:56:40;;;;;;;0.10;0.10;;;;;;;6.77;100.00;98689.59;4988202;28;20066;-79
2021/01/19 00:59:44;;;;;;;0.10;0.00;;;;;;;6.80;100.00;98685.09;4987834;28;20557;-78
2021/01/19 01:02:47;;;;;;;0.10;0.10;;;;;;;6.82;100.00;98677.09;4989292;28;20053;-79
2021/01/19 01:05:50;;;;;;;0.00;0.00;;;;;;;6.81;100.00;98667.25;4986309;28;20061;-79
2021/01/19 01:08:54;;;;;;;0.00;0.00;;;;;;;6.81;100.00;98659.72;5020428;28;20068;-78
2021/01/19 01:11:58;;;;;;;0.10;0.00;;;;;;;6.83;100.00;98648.16;5026988;28;20072;-79
2021/01/19 01:15:04;;;;;;;0.00;0.00;;;;;;;6.82;100.00;98646.66;5026951;28;20061;-79
2021/01/19 01:18:12;;;;;;;0.05;0.00;;;;;;;6.82;100.00;98632.81;5029204;28;20060;-78
2021/01/19 01:21:15;;;;;;;0.10;0.00;;;;;;;6.83;100.00;98628.78;5031870;28;20533;-78
2021/01/19 01:24:19;;;;;;;0.10;0.10;;;;;;;6.87;100.00;98618.28;5013069;28;20114;-78
2021/01/19 01:27:26;;;;;;;0.00;0.00;;;;;;;6.88;100.00;98626.13;5010578;28;20057;-79
2021/01/19 01:30:30;;;;;;;0.00;0.00;;;;;;;6.90;100.00;98622.88;5010541;28;20072;-78
2021/01/19 01:33:33;;;;;;;0.10;0.00;;;;;;;6.87;100.00;98618.28;4999336;28;20426;-78
2021/01/19 01:36:40;;;;;;;0.00;0.00;;;;;;;6.85;100.00;98615.25;5010494;28;20064;-79
2021/01/19 01:39:44;;;;;;;0.10;0.00;;;;;;;6.85;100.00;98593.09;4999359;28;20057;-81
2021/01/19 01:42:50;;;;;;;0.00;0.00;;;;;;;6.88;100.00;98587.38;5010361;28;20414;-79
2021/01/19 01:45:53;;;;;;;0.00;0.00;;;;;;;6.89;100.00;98583.38;5010434;28;20061;-79
2021/01/19 01:48:57;;;;;;;0.10;0.00;;;;;;;6.91;100.00;98580.09;5010203;28;20057;-79
2021/01/19 01:52:00;;;;;;;0.00;0.00;;;;;;;6.88;100.00;98570.03;5010205;28;20532;-78
2021/01/19 01:55:05;;;;;;;0.10;0.10;;;;;;;6.86;100.00;98553.88;5009876;28;20065;-78
2021/01/19 01:58:08;;;;;;;0.10;0.00;;;;;;;6.85;100.00;98551.59;5011038;28;20061;-79
2021/01/19 02:01:12;;;;;;;0.00;0.00;;;;;;;6.84;100.00;98550.09;5010482;28;20068;-78
2021/01/19 02:04:15;;;;;;;0.00;0.00;;;;;;;6.88;100.00;98547.88;5010448;28;20064;-78
2021/01/19 02:07:40;;;;;;;0.00;0.00;;;;;;;6.87;100.00;98541.56;5001324;28;20057;-79
2021/01/19 02:11:17;;;;;;;0.10;0.10;;;;;;;6.82;100.00;98538.75;4970817;28;20058;-78
2021/01/19 02:14:39;;;;;;;0.10;0.00;;;;;;;6.78;100.00;98516.78;4969150;28;20535;-78
2021/01/19 02:18:00;;;;;;;0.10;0.10;;;;;;;6.73;100.00;98525.03;4982510;28;20062;-78
2021/01/19 02:21:28;;;;;;;0.10;0.10;;;;;;;6.72;100.00;98498.59;4980675;28;20054;-78
2021/01/19 02:24:50;;;;;;;0.00;0.00;;;;;;;6.72;100.00;98504.13;4987150;28;20065;-78
2021/01/19 02:28:15;;;;;;;0.00;0.00;;;;;;;6.68;100.00;98503.56;4989633;28;20065;-78
2021/01/19 02:31:56;;;;;;;0.00;0.00;;;;;;;6.67;100.00;98483.44;4949613;28;20911;-78
2021/01/19 02:35:20;;;;;;;0.00;0.00;;;;;;;6.68;100.00;98484.22;4951258;28;20065;-79
2021/01/19 02:38:34;;;;;;;0.10;0.00;;;;;;;6.68;100.00;98484.22;4950358;28;20058;-78
2021/01/19 02:41:41;;;;;;;0.05;0.00;;;;;;;6.68;100.00;98479.44;4949273;28;20057;-78
2021/01/19 02:44:47;;;;;;;0.10;0.10;;;;;;;6.65;100.00;98474.09;4950181;28;20054;-78
2021/01/19 02:47:51;;;;;;;0.10;0.00;;;;;;;6.62;100.00;98464.03;4958466;28;20049;-78
2021/01/19 02:50:54;;;;;;;0.10;0.00;;;;;;;6.59;100.00;98464.97;4958677;28;20061;-78
2021/01/19 02:53:59;;;;;;;0.00;0.00;;;;;;;6.60;100.00;98460.97;4947749;28;20058;-78
2021/01/19 02:57:12;;;;;;;0.00;0.00;;;;;;;6.54;100.00;98452.59;4948572;28;20053;-78
2021/01/19 03:00:34;;;;;;;0.00;0.00;;;;;;;6.50;100.00;98445.72;4950598;28;20069;-78
2021/01/19 03:03:39;;;;;;;0.10;0.00;;;;;;;6.52;100.00;98440.50;4948406;28;20143;-79
2021/01/19 03:06:45;;;;;;;0.00;0.00;;;;;;;6.48;100.00;98442.69;4953011;28;20311;-79
2021/01/19 03:09:50;;;;;;;0.10;0.10;;;;;;;6.49;100.00;98433.16;4948903;28;20069;-78
2021/01/19 03:12:55;;;;;;;0.00;0.00;;;;;;;6.51;100.00;98436.97;4950854;28;20077;-78
2021/01/19 03:16:09;;;;;;;0.00;0.00;;;;;;;6.47;100.00;98436.44;4949516;28;21116;-78
2021/01/19 03:19:18;;;;;;;0.00;0.00;;;;;;;6.46;100.00;98429.34;4949777;28;20053;-78
2021/01/19 03:22:21;;;;;;;0.10;0.00;;;;;;;6.47;100.00;98424.59;4960445;28;20804;-79
2021/01/19 03:25:26;;;;;;;0.10;0.00;;;;;;;6.50;100.00;98434.69;4929129;28;20062;-79
2021/01/19 03:28:29;;;;;;;0.10;0.00;;;;;;;6.50;100.00;98429.91;4931428;28;20061;-79
2021/01/19 03:31:33;;;;;;;0.10;0.10;;;;;;;6.49;100.00;98422.88;4933445;28;20061;-79
2021/01/19 03:34:37;;;;;;;0.10;0.10;;;;;;;6.47;100.00;98424.59;4929613;28;20089;-79
2021/01/19 03:37:40;;;;;;;0.00;0.00;;;;;;;6.45;100.00;98427.84;4941091;28;20054;-80
2021/01/19 03:40:44;;;;;;;0.10;0.00;;;;;;;6.46;100.00;98434.88;4929912;28;20113;-79
2021/01/19 03:43:48;;;;;;;0.03;0.00;;;;;;;6.44;100.00;98436.59;4930620;28;20942;-78
2021/01/19 03:46:51;;;;;;;0.00;0.00;;;;;;;6.45;100.00;98432.63;4930542;28;20054;-77
2021/01/19 03:49:55;;;;;;;0.10;0.00;;;;;;;6.51;100.00;98436.22;4931558;28;20077;-77
2021/01/19 03:52:59;;;;;;;0.08;0.08;;;;;;;6.52;100.00;98435.72;4928797;28;20046;-78
2021/01/19 03:56:03;;;;;;;0.10;0.00;;;;;;;6.54;100.00;98440.78;4929550;28;20165;-77
2021/01/19 03:59:06;;;;;;;0.10;0.00;;;;;;;6.51;100.00;98452.81;4930281;28;20284;-80
2021/01/19 04:02:10;;;;;;;0.05;0.00;;;;;;;6.52;100.00;98432.94;4931507;28;20866;-79
2021/01/19 04:05:14;;;;;;;0.00;0.00;;;;;;;6.57;100.00;98446.09;4926343;28;20428;-79
2021/01/19 04:08:17;;;;;;;0.10;0.10;;;;;;;6.65;100.00;98435.38;4930558;28;20058;-80
2021/01/19 04:11:21;;;;;;;0.10;0.00;;;;;;;6.62;100.00;98436.34;4928903;28;20066;-79
2021/01/19 04:14:25;;;;;;;0.00;0.00;;;;;;;6.62;100.00;98436.34;4927906;28;20058;-79
2021/01/19 04:17:28;;;;;;;0.10;0.00;;;;;;;6.61;100.00;98443.13;4929800;28;20081;-79
2021/01/19 04:20:32;;;;;;;0.10;0.00;;;;;;;6.61;100.00;98440.34;4929773;28;20615;-80
2021/01/19 04:23:35;;;;;;;0.10;0.10;;;;;;;6.64;100.00;98439.41;4938114;28;20073;-79
2021/01/19 04:26:39;;;;;;;0.00;0.00;;;;;;;6.72;100.00;98446.03;4949464;28;20720;-79
2021/01/19 04:29:43;;;;;;;0.00;0.00;;;;;;;6.70;100.00;98440.22;4959676;28;20636;-79
2021/01/19 04:32:48;;;;;;;0.10;0.10;;;;;;;6.70;100.00;98440.22;4947649;28;20061;-79
2021/01/19 04:35:51;;;;;;;0.00;0.00;;;;;;;6.72;100.00;98443.28;4949081;28;20066;-79
2021/01/19 04:38:55;;;;;;;0.03;0.00;;;;;;;6.72;100.00;98449.56;4939764;28;20085;-79
2021/01/19 04:41:58;;;;;;;0.10;0.00;;;;;;;6.72;100.00;98441.28;4947165;28;20174;-80
2021/01/19 04:45:07;;;;;;;0.00;0.00;;;;;;;6.71;100.00;98444.53;4948085;28;20054;-79
2021/01/19 04:48:11;;;;;;;0.05;0.00;;;;;;;6.73;100.00;98447.56;4948067;28;20049;-79
2021/01/19 04:51:20;;;;;;;0.10;0.10;;;;;;;6.71;100.00;98439.00;4949086;28;20050;-79
2021/01/19 04:54:29;;;;;;;0.00;0.00;;;;;;;6.77;100.00;98445.34;4952101;28;20081;-81
2021/01/19 04:57:36;;;;;;;0.00;0.00;;;;;;;6.91;100.00;98447.28;4954583;28;20058;-80
2021/01/19 05:00:41;;;;;;;0.00;0.00;;;;;;;6.91;100.00;98441.75;4955600;28;20968;-79
2021/01/19 05:04:07;;;;;;;0.00;0.00;;;;;;;6.84;100.00;98442.19;4953671;28;20042;-81
2021/01/19 05:07:36;;;;;;;0.00;0.00;;;;;;;6.87;100.00;98443.97;4953987;28;20474;-80
2021/01/19 05:10:40;;;;;;;0.10;0.00;;;;;;;6.84;100.00;98431.13;4952356;28;20767;-80
2021/01/19 05:14:01;;;;;;;0.10;0.10;;;;;;;6.92;100.00;98448.03;4951564;28;20165;-80
2021/01/19 05:17:06;;;;;;;0.00;0.00;;;;;;;6.86;100.00;98445.97;4953605;28;20073;-81
2021/01/19 05:20:11;;;;;;;0.05;0.00;;;;;;;6.85;100.00;98443.69;4956356;28;20049;-77
2021/01/19 05:23:22;;;;;;;0.10;0.00;;;;;;;6.81;100.00;98454.97;4947008;28;20054;-77
2021/01/19 05:26:26;;;;;;;0.10;0.00;;;;;;;6.79;100.00;98448.41;4932932;28;20077;-76
2021/01/19 05:29:30;;;;;;;0.10;0.00;;;;;;;6.78;100.00;98450.41;4932864;28;20046;-77
2021/01/19 05:32:42;;;;;;;0.10;0.10;;;;;;;6.78;100.00;98441.34;4930561;28;20046;-77
2021/01/19 05:35:46;;;;;;;0.10;0.00;;;;;;;6.78;100.00;98444.09;4934214;28;20065;-78
2021/01/19 05:38:51;;;;;;;0.00;0.00;;;;;;;6.77;100.00;98437.06;4934754;28;21104;-77
2021/01/19 05:41:56;;;;;;;0.10;0.00;;;;;;;6.74;100.00;98438.00;4933402;28;20739;-78
2021/01/19 05:45:08;;;;;;;0.00;0.00;;;;;;;6.73;100.00;98440.03;4933736;28;20837;-78
2021/01/19 05:48:15;;;;;;;0.00;0.00;;;;;;;6.73;100.00;98464.16;4933780;28;20057;-78
2021/01/19 05:51:22;;;;;;;0.10;0.00;;;;;;;6.72;100.00;98455.09;4933135;28;20069;-78
2021/01/19 05:54:31;;;;;;;0.00;0.00;;;;;;;6.70;100.00;98443.00;4934267;28;20054;-77
2021/01/19 05:57:34;;;;;;;0.10;0.00;;;;;;;6.72;100.00;98440.50;4935674;28;20050;-77
2021/01/19 06:00:39;;;;;;;0.00;0.00;;;;;;;6.69;100.00;98438.72;4935193;28;20795;-78
2021/01/19 06:03:56;;;;;;;0.10;0.10;;;;;;;6.68;100.00;98428.88;4931097;28;20085;-77
2021/01/19 06:07:00;;;;;;;0.00;0.00;;;;;;;6.67;100.00;98433.66;4933670;28;20046;-79
2021/01/19 06:10:13;;;;;;;0.08;0.00;;;;;;;6.66;100.00;98431.38;4931076;28;20077;-80
2021/01/19 06:13:19;;;;;;;0.10;0.10;;;;;;;6.65;100.00;98440.91;4932099;28;20042;-83
2021/01/19 06:16:26;;;;;;;0.10;0.10;;;;;;;6.62;100.00;98439.13;4931977;28;20061;-79
2021/01/19 06:19:31;;;;;;;0.00;0.00;;;;;;;6.59;100.00;98443.63;4934056;28;20049;-82
2021/01/19 06:22:35;;;;;;;0.10;0.00;;;;;;;6.57;100.00;98448.09;4939099;28;20061;-80
2021/01/19 06:25:39;;;;;;;0.10;0.10;;;;;;;6.57;100.00;98437.03;4956272;28;20049;-79
2021/01/19 06:28:43;;;;;;;0.10;0.00;;;;;;;6.58;100.00;98438.56;4952909;28;20069;-81
2021/01/19 06:31:47;;;;;;;0.10;0.00;;;;;;;6.55;100.00;98434.75;4957230;28;20797;-81
2021/01/19 06:34:51;;;;;;;0.00;0.00;;;;;;;6.60;100.00;98444.38;4952043;28;20065;-82
2021/01/19 06:37:54;;;;;;;0.00;0.00;;;;;;;6.56;100.00;98438.31;4954923;28;20053;-82
2021/01/19 06:41:01;;;;;;;0.00;0.00;;;;;;;6.56;100.00;98444.56;4954793;28;20057;-83
2021/01/19 06:44:10;;;;;;;0.00;0.00;;;;;;;6.59;100.00;98431.78;4948957;28;20054;-83
2021/01/19 06:47:18;;;;;;;0.08;0.00;;;;;;;6.61;100.00;98432.06;4952249;28;20085;-84
2021/01/19 06:50:27;;;;;;;0.00;0.00;;;;;;;6.59;100.00;98417.97;4973500;28;20665;-84
2021/01/19 06:53:43;;;;;;;0.10;0.00;;;;;;;6.57;100.00;98412.16;4956277;28;20073;-82
2021/01/19 06:57:00;;;;;;;0.10;0.00;;;;;;;6.55;100.00;98420.16;4958479;28;20653;-84
2021/01/19 07:00:23;;;;;;;0.00;0.00;;;;;;;6.55;100.00;98420.16;4959963;28;20049;-83
2021/01/19 07:03:27;;;;;;;0.00;0.00;;;;;;;6.55;100.00;98414.63;4955323;28;20138;-81
2021/01/19 07:06:52;;;;;;;0.00;0.00;;;;;;;6.60;100.00;98411.19;4952036;28;20769;-81
2021/01/19 07:10:07;;;;;;;0.10;0.00;;;;;;;6.59;100.00;98420.72;4965915;28;20108;-84
2021/01/19 07:13:22;;;;;;;0.10;0.00;;;;;;;6.62;100.00;98422.53;4966280;28;20267;-79
2021/01/19 07:16:34;;;;;;;0.00;0.00;;;;;;;6.61;100.00;98419.00;4949598;28;20089;-79
2021/01/19 07:19:50;;;;;;;0.00;0.00;;;;;;;6.60;100.00;98413.97;4948482;28;20057;-79
2021/01/19 07:23:01;;;;;;;0.10;0.10;;;;;;;6.59;100.00;98404.13;4960301;28;20044;-79
2021/01/19 07:26:04;;;;;;;0.00;0.00;;;;;;;6.59;100.00;98393.06;4972926;28;20057;-79
2021/01/19 07:29:08;;;;;;;0.08;0.00;;;;;;;6.59;100.00;98393.06;4975270;28;20176;-78
2021/01/19 07:32:18;;;;;;;0.00;0.00;;;;;;;6.57;100.00;98396.31;4968611;28;20522;-78
2021/01/19 07:35:25;;;;;;;0.10;0.00;;;;;;;6.58;100.00;98386.03;4951990;28;20061;-77
2021/01/19 07:38:28;;;;;;;0.10;0.00;;;;;;;6.57;100.00;98390.03;4951859;28;20726;-77
2021/01/19 07:41:34;;;;;;;0.00;0.00;;;;;;;6.56;100.00;98399.56;4952436;28;20308;-78
2021/01/19 07:44:38;;;;;;;0.00;0.00;;;;;;;6.57;100.00;98384.50;4955552;28;20646;-78
2021/01/19 07:47:45;;;;;;;0.10;0.00;;;;;;;6.56;100.00;98388.50;4953746;28;20738;-78
2021/01/19 07:50:48;;;;;;;0.10;0.00;;;;;;;6.55;100.00;98382.22;4951227;28;20049;-78
2021/01/19 07:53:56;;;;;;;0.10;0.00;;;;;;;6.56;100.00;98382.97;4949603;28;20591;-79
2021/01/19 07:57:16;;;;;;;0.08;0.00;;;;;;;6.55;100.00;98381.44;4951225;28;20054;-78
2021/01/19 08:00:22;;;;;;;0.10;0.10;;;;;;;6.55;100.00;98381.44;4949568;28;20157;-78
2021/01/19 08:03:30;;;;;;;0.10;0.00;;;;;;;6.52;100.00;98385.94;4953911;28;20681;-82
2021/01/19 08:06:34;;;;;;;0.10;0.00;;;;;;;6.56;100.00;98380.22;4950960;28;20130;-76
2021/01/19 08:09:38;;;;;;;0.00;0.00;;;;;;;6.57;100.00;98382.50;4935030;28;20073;-76
2021/01/19 08:12:43;;;;;;;0.05;0.00;;;;;;;6.66;100.00;98370.53;4940047;28;20085;-73
2021/01/19 08:16:00;;;;;;;0.10;0.00;;;;;;;6.91;100.00;98380.88;4943159;28;20057;-75
2021/01/19 08:19:06;;;;;;;0.10;0.00;;;;;;;7.18;100.00;98376.88;4941450;28;20053;-75
2021/01/19 08:22:11;;;;;;;0.00;0.00;;;;;;;7.50;100.00;98368.13;4945086;28;20497;-75
2021/01/19 08:25:28;;;;;;;0.10;0.00;;;;;;;7.64;100.00;98364.44;4941360;28;20057;-75
2021/01/19 08:28:32;;;;;;;0.00;0.00;;;;;;;7.73;100.00;98365.53;4935930;28;20683;-75
2021/01/19 08:31:38;;;;;;;0.00;0.00;;;;;;;7.84;100.00;98371.16;4939352;28;20196;-77
2021/01/19 08:34:43;;;;;;;0.00;0.00;;;;;;;7.87;100.00;98364.63;4946603;28;20070;-78
2021/01/19 08:37:49;;;;;;;0.00;0.00;;;;;;;8.00;100.00;98367.72;4943333;28;21077;-77
2021/01/19 08:40:53;;;;;;;0.00;0.00;;;;;;;8.08;100.00;98354.94;4943685;28;20395;-77
2021/01/19 08:44:00;;;;;;;0.00;0.00;;;;;;;8.09;100.00;98365.53;4940783;28;20208;-77
2021/01/19 08:47:04;;;;;;;0.00;0.00;;;;;;;8.10;100.00;98360.75;4945489;28;20045;-75
2021/01/19 08:50:15;;;;;;;0.00;0.00;;;;;;;8.10;100.00;98361.50;4943893;28;20050;-74
2021/01/19 08:53:19;;;;;;;0.00;0.00;;;;;;;8.14;100.00;98366.84;4938112;28;20070;-76
2021/01/19 08:56:24;;;;;;;0.10;0.00;;;;;;;8.14;100.00;98366.84;4941530;28;20061;-76
2021/01/19 08:59:28;;;;;;;0.00;0.00;;;;;;;8.17;100.00;98372.13;4942371;28;20046;-80
2021/01/19 09:02:32;;;;;;;0.00;0.00;;;;;;;8.25;100.00;98351.03;4943687;28;20054;-78
2021/01/19 09:05:35;;;;;;;0.00;0.00;;;;;;;8.32;100.00;98347.03;4942348;28;20988;-76
2021/01/19 09:08:41;;;;;;;0.00;0.00;;;;;;;8.37;100.00;98354.63;4941897;28;20061;-78
2021/01/19 09:11:45;;;;;;;0.00;0.00;;;;;;;8.43;100.00;98360.19;4942243;28;20566;-77
2021/01/19 09:14:52;;;;;;;0.00;0.00;;;;;;;8.50;100.00;98359.72;4942314;28;20058;-76
2021/01/19 09:17:57;;;;;;;0.00;0.00;;;;;;;8.51;100.00;98361.25;4945563;28;20058;-76
2021/01/19 09:21:10;;;;;;;0.00;0.00;;;;;;;8.54;100.00;98366.56;4940543;28;20057;-78
2021/01/19 09:24:16;;;;;;;0.00;0.00;;;;;;;8.53;100.00;98365.06;4948075;28;20077;-79
2021/01/19 09:27:20;;;;;;;0.00;0.00;;;;;;;8.51;100.00;98350.16;4948147;28;20141;-78
2021/01/19 09:30:24;;;;;;;0.00;0.00;;;;;;;8.53;100.00;98340.09;4952765;28;20387;-78
2021/01/19 09:33:31;;;;;;;0.00;0.00;;;;;;;8.53;100.00;98353.97;4960415;28;21037;-79
2021/01/19 09:36:37;;;;;;;0.00;0.00;;;;;;;8.57;100.00;98337.81;4949679;28;20057;-80
2021/01/19 09:39:42;;;;;;;0.00;0.00;;;;;;;8.61;100.00;98349.44;4953478;28;20041;-78
2021/01/19 09:42:46;;;;;;;0.10;0.00;;;;;;;8.68;100.00;98354.53;4954884;28;20049;-78
2021/01/19 09:45:51;;;;;;;0.00;0.00;;;;;;;8.75;100.00;98348.47;4956311;28;20045;-75
2021/01/19 09:48:59;;;;;;;0.10;0.00;;;;;;;8.75;100.00;98340.13;4954459;28;20152;-77
2021/01/19 09:52:10;;;;;;;0.00;0.00;;;;;;;8.72;100.00;98352.25;4955553;28;20057;-77
2021/01/19 09:55:17;;;;;;;0.00;0.00;;;;;;;8.70;100.00;98354.78;4953535;28;20093;-79
2021/01/19 09:58:22;;;;;;;0.00;0.00;;;;;;;8.64;100.00;98351.19;4952186;28;20053;-79
2021/01/19 10:01:26;;;;;;;0.10;0.00;;;;;;;8.64;100.00;98348.44;4952999;28;20572;-79
2021/01/19 10:04:31;;;;;;;0.00;0.00;;;;;;;8.63;100.00;98355.25;4955927;28;20888;-77
2021/01/19 10:07:35;;;;;;;0.00;0.00;;;;;;;8.64;100.00;98353.97;4956583;28;20065;-78
2021/01/19 10:10:43;;;;;;;0.00;0.00;;;;;;;8.65;100.00;98360.28;4955405;28;20049;-79
2021/01/19 10:13:46;;;;;;;0.00;0.00;;;;;;;8.66;100.00;98351.50;4952082;28;20529;-79
2021/01/19 10:16:52;;;;;;;0.00;0.00;;;;;;;8.70;100.00;98345.69;4975697;28;20069;-78
2021/01/19 10:20:15;;;;;;;0.00;0.00;;;;;;;8.69;100.00;98344.91;4990645;28;20526;-78
2021/01/19 10:23:30;;;;;;;0.00;0.00;;;;;;;8.72;100.00;98355.03;4982533;28;20049;-78
2021/01/19 10:26:34;;;;;;;0.10;0.00;;;;;;;8.71;100.00;98342.41;4970224;28;20057;-78
2021/01/19 10:29:42;;;;;;;0.00;0.00;;;;;;;8.73;100.00;98333.56;4971091;28;20810;-78
2021/01/19 10:32:48;;;;;;;0.10;0.00;;;;;;;8.75;100.00;98348.47;4980028;28;20415;-76
2021/01/19 10:35:51;;;;;;;0.00;0.00;;;;;;;8.77;100.00;98348.72;4969364;28;20574;-76
2021/01/19 10:39:05;;;;;;;0.00;0.00;;;;;;;8.80;100.00;98344.97;4970662;28;20473;-78
2021/01/19 10:42:09;;;;;;;0.00;0.00;;;;;;;8.85;100.00;98343.47;4970900;28;20050;-78
2021/01/19 10:45:22;;;;;;;0.00;0.00;;;;;;;8.87;100.00;98338.94;4969494;28;20061;-78
2021/01/19 10:48:26;;;;;;;0.10;0.00;;;;;;;8.94;100.00;98338.44;4970053;28;20058;-78
2021/01/19 10:51:30;;;;;;;0.10;0.00;;;;;;;8.94;100.00;98332.88;4969889;28;20058;-78
2021/01/19 10:54:33;;;;;;;0.00;0.00;;;;;;;8.97;100.00;98337.44;4970611;28;20070;-78
2021/01/19 10:57:37;;;;;;;0.10;0.00;;;;;;;9.00;100.00;98325.34;4969771;28;21429;-78
2021/01/19 11:00:40;;;;;;;0.00;0.00;;;;;;;9.01;100.00;98326.84;4971575;28;20057;-78
2021/01/19 11:03:44;;;;;;;0.00;0.00;;;;;;;9.04;100.00;98325.84;4969234;28;20058;-77
2021/01/19 11:06:47;;;;;;;0.00;0.00;;;;;;;9.11;100.00;98319.81;4969259;28;20053;-78
2021/01/19 11:09:51;;;;;;;0.05;0.00;;;;;;;9.16;100.00;98302.38;4970575;28;20094;-78
2021/01/19 11:12:55;;;;;;;0.10;0.00;;;;;;;9.20;100.00;98304.16;4968755;28;20061;-79
2021/01/19 11:15:59;;;;;;;0.00;0.00;;;;;;;9.16;100.00;98294.03;4968570;28;20419;-78
2021/01/19 11:19:04;;;;;;;0.00;0.00;;;;;;;9.14;100.00;98307.69;4970483;28;20058;-78
2021/01/19 11:22:08;;;;;;;0.00;0.00;;;;;;;9.06;100.00;98301.09;4970907;28;20058;-77
2021/01/19 11:25:13;;;;;;;0.00;0.00;;;;;;;9.05;100.00;98298.84;4989248;28;20065;-77
2021/01/19 11:28:17;;;;;;;0.00;0.00;;;;;;;9.06;100.00;98298.31;4989707;28;20526;-78
2021/01/19 11:31:29;;;;;;;0.00;0.00;;;;;;;9.05;100.00;98288.47;4987750;28;20101;-77
2021/01/19 11:34:32;;;;;;;;;;;;;;;9.10;100.00;98286.97;4988968;28;20061;-77
2021/01/19 11:37:35;;;;;;;0.00;0.00;;;;;;;9.11;100.00;98286.47;4988559;28;19925;-78
2021/01/19 11:40:39;;;;;;;0.00;0.00;;;;;;;9.16;100.00;98282.94;4989286;28;20530;-78
2021/01/19 11:43:43;;;;;;;0.00;0.00;;;;;;;9.20;100.00;98279.91;4976398;28;20399;-77
2021/01/19 11:46:46;;;;;;;0.00;0.00;;;;;;;9.21;100.00;98272.31;4988365;28;20518;-80
2021/01/19 11:49:49;;;;;;;0.00;0.00;;;;;;;9.25;100.00;98272.84;4989815;28;20053;-80
2021/01/19 11:52:53;;;;;;;0.00;0.00;;;;;;;9.28;100.00;98263.50;4988938;28;20550;-80
2021/01/19 11:55:59;;;;;;;0.10;0.00;;;;;;;9.28;100.00;98266.28;4987820;28;20065;-80
2021/01/19 11:59:03;;;;;;;0.00;0.00;;;;;;;9.26;100.00;98263.25;4975908;28;20065;-79
2021/01/19 12:02:08;;;;;;;0.00;0.00;;;;;;;9.23;100.00;98265.00;4989732;28;20134;-78
2021/01/19 12:05:12;;;;;;;0.00;0.00;;;;;;;9.22;100.00;98262.75;4976385;28;20053;-79
2021/01/19 12:08:16;;;;;;;0.00;0.00;;;;;;;9.25;100.00;98247.84;4987267;28;20061;-80
2021/01/19 12:11:20;;;;;;;0.10;0.00;;;;;;;9.27;100.00;98239.78;4973846;28;20053;-76
2021/01/19 12:14:24;;;;;;;0.00;0.00;;;;;;;9.31;100.00;98221.59;4990055;28;20049;-76
2021/01/19 12:17:27;;;;;;;0.10;0.10;;;;;;;9.38;100.00;98225.84;4987615;28;20073;-76
2021/01/19 12:20:31;;;;;;;0.10;0.00;;;;;;;9.42;100.00;98215.25;4987591;28;20053;-78
2021/01/19 12:23:35;;;;;;;0.00;0.00;;;;;;;9.45;100.00;98194.78;4987740;28;20053;-78
2021/01/19 12:26:39;;;;;;;0.00;0.00;;;;;;;9.47;100.00;98211.69;4987502;28;20057;-78
2021/01/19 12:29:42;;;;;;;0.05;0.00;;;;;;;9.55;100.00;98190.47;4987916;28;20587;-78
2021/01/19 12:32:46;;;;;;;0.00;0.00;;;;;;;9.55;100.00;98191.22;4999128;28;20061;-79
2021/01/19 12:35:50;;;;;;;0.00;0.00;;;;;;;9.55;100.00;98207.16;4987237;28;20061;-76
2021/01/19 12:38:54;;;;;;;0.00;0.00;;;;;;;9.54;100.00;98203.63;4988332;28;20538;-76
2021/01/19 12:41:58;;;;;;;0.00;0.00;;;;;;;9.53;100.00;98199.31;4988569;28;20053;-77
2021/01/19 12:45:03;;;;;;;0.00;0.00;;;;;;;9.54;100.00;98183.41;4988055;28;20061;-75
2021/01/19 12:48:08;;;;;;;0.00;0.00;;;;;;;9.54;100.00;98183.41;4987461;28;20062;-75
2021/01/19 12:51:16;;;;;;;0.00;0.00;;;;;;;9.50;100.00;98177.34;4988468;28;20061;-75
2021/01/19 12:54:19;;;;;;;0.00;0.00;;;;;;;9.43;100.00;98173.06;4986837;28;20061;-76
2021/01/19 12:57:23;;;;;;;0.00;0.00;;;;;;;9.41;100.00;98158.16;4988225;28;20066;-75
2021/01/19 13:00:27;;;;;;;0.00;0.00;;;;;;;9.39;100.00;98166.25;4989424;28;20061;-75
2021/01/19 13:03:31;;;;;;;0.00;0.00;;;;;;;9.39;100.00;98163.47;4988916;28;20525;-76
2021/01/19 13:06:34;;;;;;;0.00;0.00;;;;;;;9.34;100.00;98167.00;4979487;28;20529;-76
2021/01/19 13:09:38;;;;;;;0.00;0.00;;;;;;;9.29;100.00;98162.97;5006564;28;20065;-75
2021/01/19 13:12:41;;;;;;;0.00;0.00;;;;;;;9.26;100.00;98157.69;5007604;28;20061;-76
2021/01/19 13:15:45;;;;;;;0.10;0.00;;;;;;;9.20;100.00;98154.94;5010828;28;20068;-76
2021/01/19 13:18:49;;;;;;;0.10;0.00;;;;;;;9.16;100.00;98144.06;5011957;28;20061;-76
2021/01/19 13:21:57;;;;;;;0.10;0.00;;;;;;;9.10;100.00;98140.56;5012022;28;20537;-76
2021/01/19 13:25:04;;;;;;;0.03;0.00;;;;;;;9.09;100.00;98125.16;4991090;28;20058;-75
2021/01/19 13:28:08;;;;;;;0.10;0.00;;;;;;;9.08;100.00;98120.88;4990871;28;20058;-74
2021/01/19 13:31:11;;;;;;;0.10;0.10;;;;;;;9.09;100.00;98105.72;4991641;28;20065;-73
2021/01/19 13:34:15;;;;;;;0.00;0.00;;;;;;;9.10;100.00;98098.91;4991603;28;20057;-74
2021/01/19 13:37:18;;;;;;;0.00;0.00;;;;;;;9.12;100.00;98092.84;4989267;28;20509;-74
2021/01/19 13:40:22;;;;;;;0.00;0.00;;;;;;;9.11;100.00;98089.31;4990646;28;20058;-74
2021/01/19 13:43:25;;;;;;;0.00;0.00;;;;;;;9.04;100.00;98081.50;4991786;28;20407;-75
2021/01/19 13:46:30;;;;;;;0.00;0.00;;;;;;;8.95;100.00;98067.88;4991222;28;20053;-75
2021/01/19 13:49:34;;;;;;;0.00;0.00;;;;;;;8.88;100.00;98056.56;4996111;28;20460;-74
2021/01/19 13:52:37;;;;;;;0.00;0.00;;;;;;;8.86;100.00;98059.81;4992417;28;20065;-75
2021/01/19 13:55:41;;;;;;;0.00;0.00;;;;;;;8.89;100.00;98047.72;4990586;28;20061;-75
2021/01/19 13:58:44;;;;;;;0.00;0.00;;;;;;;8.92;100.00;98046.69;4989662;28;20414;-79
2021/01/19 14:01:49;;;;;;;0.00;0.00;;;;;;;8.95;100.00;98042.91;4992007;28;20057;-80
2021/01/19 14:04:52;;;;;;;0.00;0.00;;;;;;;8.94;100.00;98038.59;4991066;28;20530;-79
2021/01/19 14:07:56;;;;;;;0.00;0.00;;;;;;;8.92;100.00;98029.28;4989670;28;20073;-78
2021/01/19 14:10:59;;;;;;;0.00;0.00;;;;;;;8.88;100.00;98017.69;4990153;28;20415;-78
2021/01/19 14:14:08;;;;;;;0.00;0.00;;;;;;;8.83;100.00;98016.44;4990125;28;20061;-79
2021/01/19 14:17:12;;;;;;;0.10;0.00;;;;;;;8.77;100.00;98004.56;4998386;28;20060;-78
2021/01/19 14:20:18;;;;;;;0.00;0.00;;;;;;;8.75;100.00;98001.56;5010014;28;20623;-78
2021/01/19 14:23:22;;;;;;;0.00;0.00;;;;;;;8.70;100.00;97991.25;5013101;28;20050;-79
2021/01/19 14:26:27;;;;;;;0.00;0.00;;;;;;;8.64;100.00;97995.28;4992026;28;20513;-78
2021/01/19 14:29:33;;;;;;;0.00;0.00;;;;;;;8.61;100.00;97988.72;5003922;28;20526;-79
2021/01/19 14:32:37;;;;;;;0.10;0.00;;;;;;;8.59;100.00;97977.41;4990541;28;20065;-79
2021/01/19 14:35:43;;;;;;;0.10;0.00;;;;;;;8.61;100.00;97969.31;5004637;28;20525;-79
2021/01/19 14:38:48;;;;;;;0.08;0.00;;;;;;;8.64;100.00;97964.78;5017575;28;20057;-78